Tiempo atmosférico en la estación meteorológica de Os De Balaguer, Lleida (515 m.)



Fecha
DESCASC
Temp. máxima en grados centígrados (hora)
DESCASC
Temp. mínima en grados centígrados (hora)
DESCASC
Temp. media en grados centígrados
DESCASC
Racha de viento máxima en m/sg (hora)
DESCASC
Velocidad máxima media en intervalos de 10 minutos(hora)
DESCASC
Precipitaciones diarias en mm
DESCASC
Precipitaciones de 00:00 a 06:00 en mm
DESCASC
Precipitaciones de 06:00 a 12:00 en mm
DESCASC
Precipitaciones de 12:00 a 18:00 en mm
DESCASC
Precipitaciones de 18:00 a 24:00 en mm
DESCASC
22-04-2019 17.7 (13:20) 8.1 (04:00) 12.9 6.11 (13:40) 3.06 (07:00) 0.4 0 0.4 0 0
21-04-2019 15.1 (16:00) 7.7 (04:40) 11.4 10.28 (02:30) 6.39 (02:30) 2.4 1.6 0.8 0 0
20-04-2019 20.2 (12:10) 6.7 (04:30) 13.5 14.44 (22:40) 7.78 (14:30) 1.6 0 0 0 1.6
19-04-2019 19.2 (15:50) 13.3 (01:40) 16.3 18.33 (11:20) 11.39 (10:40) 0 0 0 0 0
18-04-2019 17.2 (14:10) 8.5 (00:00) 12.9 15.83 (18:30) 10 (18:10) 0 0 0 0 0
17-04-2019 20.7 (15:50) 5.4 (00:00) 13.1 9.44 (16:10) 5.28 (14:00) 0 0 0 0 0
16-04-2019 19 (17:10) 6.1 (00:00) 12.5 8.33 (00:40) 5.28 (00:50) 1.2 1.2 0 0 0
15-04-2019 18.2 (14:30) 7.1 (00:00) 12.7 11.67 (23:30) 6.67 (23:50) 0 0 0 0 0
14-04-2019 24.2 (18:20) 4.3 (00:00) 14.3 13.33 (17:50) 7.22 (17:50) 0 0 0 0 0
13-04-2019 20.1 (17:40) 0.9 (00:00) 10.5 9.72 (16:50) 6.39 (15:10) 0 0 0 0 0
12-04-2019 19.1 (17:50) 0.8 (00:00) 10 11.94 (16:10) 7.5 (16:20) 0 0 0 0 0
11-04-2019 18.4 (17:20) 0.6 (00:00) 9.5 9.72 (13:50) 5.83 (13:10) 0 0 0 0 0
10-04-2019 16.1 (14:30) 2.7 (00:00) 9.4 10.83 (15:40) 5 (14:20) 2.2 0.4 0 1.8 0
09-04-2019 17.3 (18:00) 7 (00:00) 12.1 13.89 (16:30) 7.22 (14:40) 0.4 0.4 0 0 0
08-04-2019 18.3 (17:30) 2.7 (00:00) 10.5 10.83 (15:30) 5.28 (15:30) 0 0 0 0 0
07-04-2019 16 (17:10) 1.3 (00:00) 8.6 11.39 (16:40) 6.39 (16:00) 0.8 0 0 0 0.8
06-04-2019 12.9 (16:30) 3.9 (00:00) 8.4 9.72 (21:30) 6.67 (21:30) 11.4 6.2 1.2 0 4
05-04-2019 15.8 (15:20) 0.6 (00:00) 8.2 9.72 (19:40) 5.83 (19:40) 4.4 0 1.2 0 3.2
04-04-2019 13.5 (16:20) -2.4 (-00:0) 5.5 11.39 (17:10) 6.67 (16:30) 0 0 0 0 0
03-04-2019 12.2 (12:20) 3.8 (00:00) 8 10 (22:40) 5 (22:40) 0.2 0.2 0 0 0
02-04-2019 19.7 (16:00) 5 (00:00) 12.4 11.39 (17:20) 6.39 (14:50) 0 0 0 0 0
01-04-2019 17.1 (15:20) 6.8 (00:00) 12 8.33 (14:50) 5.56 (14:50) 0 0 0 0 0
31-03-2019 14 (18:10) 1.5 (00:00) 7.8 8.06 (12:40) 5 (11:20) 0 0 0 0 0
30-03-2019 17.6 (15:00) 1.8 (00:00) 9.7 7.78 (18:20) 4.72 (06:30) 0 0 0 0 0
29-03-2019 18.3 (14:30) 2.3 (00:00) 10.3 8.33 (17:10) 5 (17:10) 0 0 0 0 0
28-03-2019 16.9 (16:10) 0.5 (00:00) 8.7 7.22 (13:50) 3.89 (13:30) 0 0 0 0 0
27-03-2019 17.3 (16:00) -0.3 (00:00) 8.5 9.17 (13:20) 6.11 (13:20) 0 0 0 0 0
26-03-2019 18.9 (15:20) -0.7 (-00:0) 9.1 10.83 (12:40) 7.78 (12:40) 0 0 0 0 0
25-03-2019 19.9 (16:00) 3.6 (00:00) 11.7 10 (14:10) 6.67 (13:40) 0 0 0 0 0

Gráficas

Temp. máximas Temp. mínimas Temp. medias Precipitaciones Rachas de viento máximas Velocidades máximas media en intervalos de 10 minutos

Datos horarios

Fecha y hora oficial Temperatura (ºC) Velocidad del viento (km/h) Dirección del viento Racha (km/h) Dirección de racha Precipitación (mm) Presión (hPa) Tendencia (hPa) Humedad (%)
2019-04-23 23:00:00 10.1 10 Nordeste 15 Nordeste 0 -- -- 93
2019-04-23 22:00:00 10.1 8 Nordeste 22 Nordeste 0 -- -- 93
2019-04-23 21:00:00 10.4 13 Nordeste 33 Oeste 0.8 -- -- 90
2019-04-23 20:00:00 11.2 16 Oeste 46 Sur 0.2 -- -- 85
2019-04-23 19:00:00 16.2 9 Sudeste 31 Sudeste 0 -- -- 66
2019-04-23 18:00:00 16.2 10 Nordeste 32 Sur 0 -- -- 61
2019-04-23 17:00:00 18.4 10 Sudeste 22 Sudoeste 0 -- -- 50
2019-04-23 16:00:00 20.3 6 Sudeste 18 Sudoeste 0 -- -- 47
2019-04-23 15:00:00 19.1 10 Sudoeste 24 Sur 0 -- -- 56
2019-04-23 14:00:00 17.3 9 Sur 17 Sur 0 -- -- 57
2019-04-23 13:00:00 16.2 7 Nordeste 15 Este 0 -- -- 69
2019-04-23 12:00:00 13.1 9 Este 16 Este 0 -- -- 85
2019-04-23 11:00:00 11.8 6 Nordeste 10 Este 0 -- -- 89
2019-04-23 10:00:00 11.6 4 Este 10 Sudoeste 0 -- -- 89
2019-04-23 09:00:00 11.2 4 Sudeste 10 Este 0 -- -- 92
2019-04-23 08:00:00 10.7 4 Este 8 Nordeste 0 -- -- 91
2019-04-23 07:00:00 10.4 4 Nordeste 6 Nordeste 0 -- -- 93
2019-04-23 06:00:00 10.7 6 Nordeste 13 Nordeste 0 -- -- 92
2019-04-23 05:00:00 10.4 3 Este 5 Este 0 -- -- 95
2019-04-23 04:00:00 10.7 2 Norte 7 Sudoeste 0 -- -- 94
2019-04-23 03:00:00 10.9 2 Sudoeste 9 Nordeste 0 -- -- 90
2019-04-23 02:00:00 11 3 Nordeste 6 Nordeste 0 -- -- 91
2019-04-23 01:00:00 11.6 0 Calma 10 Sur 0 -- -- 90
2019-04-23 00:00:00 12.5 0 Calma 12 Este 0 -- -- 85
2019-04-22 23:00:00 12.7 8 Este 11 Este 0 -- -- 81
2019-04-22 22:00:00 12.9 6 Norte 9 Norte 0 -- -- 75
2019-04-22 21:00:00 13.3 0 Calma 8 Sur 0 -- -- 79
2019-04-22 20:00:00 14.1 5 Sudoeste 10 Sudoeste 0 -- -- 75
2019-04-22 19:00:00 15.2 0 Calma 13 Sudoeste 0 -- -- 63
2019-04-22 18:00:00 15 6 Sudoeste 15 Sudoeste 0 -- -- 66
2019-04-22 17:00:00 15.2 8 Sur 19 Sudoeste 0 -- -- 62
2019-04-22 16:00:00 16.2 7 Este 22 Sudeste 0 -- -- 57
2019-04-22 15:00:00 17.3 8 Este 19 Este 0 -- -- 53
2019-04-22 14:00:00 16.8 7 Sudoeste 22 Sudoeste 0 -- -- 58
2019-04-22 13:00:00 17 10 Sudoeste 15 Sudoeste 0 -- -- 60
2019-04-22 12:00:00 13.7 10 Este 16 Este 0 -- -- 71
2019-04-22 11:00:00 11.7 6 Nordeste 14 Norte 0 -- -- 78
2019-04-22 10:00:00 11.1 10 Nordeste 20 Este 0 -- -- 82
2019-04-22 09:00:00 10.4 10 Nordeste 18 Nordeste 0.2 -- -- 81
2019-04-22 08:00:00 8.5 6 Nordeste 13 Nordeste 0.2 -- -- 91
2019-04-22 07:00:00 9.2 11 Nordeste 18 Nordeste 0 -- -- 79
2019-04-22 06:00:00 9 10 Nordeste 15 Este 0 -- -- 79
2019-04-22 05:00:00 8.4 10 Nordeste 14 Nordeste 0 -- -- 81
2019-04-22 04:00:00 8.1 9 Este 13 Este 0 -- -- 82
2019-04-22 03:00:00 9.9 8 Nordeste 13 Norte 0 -- -- 75
2019-04-22 02:00:00 10.2 10 Nordeste 15 Nordeste 0 -- -- 72
2019-04-22 01:00:00 9.7 8 Nordeste 15 Este 0 -- -- 73
2019-04-22 00:00:00 11.3 7 Nordeste 14 Nordeste 0 -- -- 67
2019-04-21 23:00:00 12.2 9 Nordeste 15 Nordeste 0 -- -- 61
2019-04-21 22:00:00 12 4 Nordeste 17 Este 0 -- -- 68
2019-04-21 21:00:00 13.5 7 Nordeste 17 Nordeste 0 -- -- 56
2019-04-21 20:00:00 14 7 Nordeste 12 Este 0 -- -- 55
2019-04-21 19:00:00 14.6 3 Nordeste 19 Nordeste 0 -- -- 54
2019-04-21 18:00:00 15 10 Nordeste 24 Nordeste 0 -- -- 51
2019-04-21 17:00:00 14.9 18 Nordeste 33 Este 0 -- -- 49
2019-04-21 16:00:00 15.1 14 Este 30 Este 0 -- -- 52
2019-04-21 15:00:00 14.3 16 Este 33 Este 0 -- -- 57
2019-04-21 14:00:00 13.4 17 Este 35 Este 0 -- -- 61
2019-04-21 13:00:00 12.8 13 Este 28 Este 0 -- -- 63
2019-04-21 12:00:00 12.8 7 Nordeste 15 Nordeste 0 -- -- 68
2019-04-21 11:00:00 11.5 9 Nordeste 21 Nordeste 0 -- -- 76
2019-04-21 10:00:00 10.1 6 Nordeste 19 Nordeste 0 -- -- 82
2019-04-21 09:00:00 9.2 12 Nordeste 20 Nordeste 0 -- -- 82
2019-04-21 08:00:00 8.7 12 Nordeste 30 Norte 0.2 -- -- 86
2019-04-21 07:00:00 8.2 10 Nordeste 17 Nordeste 0.6 -- -- 90
2019-04-21 06:00:00 8.8 11 Nordeste 19 Nordeste 0 -- -- 82
2019-04-21 05:00:00 8.5 12 Nordeste 17 Nordeste 0.2 -- -- 85
2019-04-21 04:00:00 9 3 Sudeste 32 Nordeste 0 -- -- 85
2019-04-21 03:00:00 9.2 19 Nordeste 37 Norte 0 -- -- 79
2019-04-21 02:00:00 8.3 17 Nordeste 31 Nordeste 0.6 -- -- 89
2019-04-21 01:00:00 8 12 Nordeste 21 Este 0.8 -- -- 91
2019-04-21 00:00:00 8 15 Nordeste 31 Este 1.6 -- -- 90
2019-04-20 23:00:00 9.1 22 Este 52 Este 0 -- -- 80
2019-04-20 22:00:00 10.9 10 Nordeste 30 Este 0 -- -- 66
2019-04-20 21:00:00 11.8 12 Sudoeste 31 Sur 0 -- -- 62
2019-04-20 20:00:00 14.9 10 Este 36 Este 0 -- -- 47
2019-04-20 19:00:00 15.6 16 Este 41 Este 0 -- -- 44
2019-04-20 18:00:00 16.5 18 Nordeste 40 Este 0 -- -- 43
2019-04-20 17:00:00 17.4 20 Nordeste 41 Este 0 -- -- 40
2019-04-20 16:00:00 17.2 19 Este 45 Este 0 -- -- 42
2019-04-20 15:00:00 17.7 18 Nordeste 47 Este 0 -- -- 40
2019-04-20 14:00:00 18.8 22 Este 46 Este 0 -- -- 37
2019-04-20 13:00:00 19.4 19 Este 48 Este 0 -- -- 35
2019-04-20 12:00:00 19.8 19 Este 33 Este 0 -- -- 34
2019-04-20 11:00:00 17.9 14 Nordeste 24 Nordeste 0 -- -- 39
2019-04-20 10:00:00 15.6 10 Nordeste 26 Nordeste 0 -- -- 43
2019-04-20 09:00:00 12.2 5 Nordeste 17 Este 0 -- -- 53
2019-04-20 08:00:00 10.1 15 Nordeste 22 Nordeste 0 -- -- 51
2019-04-20 07:00:00 12 13 Nordeste 22 Nordeste 0 -- -- 43
2019-04-20 06:00:00 12.7 13 Nordeste 27 Nordeste 0 -- -- 41
2019-04-20 05:00:00 7 7 Nordeste 13 Este 0 -- -- 57
2019-04-20 04:00:00 8.7 5 Nordeste 13 Este 0 -- -- 52
2019-04-20 03:00:00 12.6 11 Este 18 Este 0 -- -- 38
2019-04-20 02:00:00 12.3 6 Nordeste 13 Nordeste 0 -- -- 42
2019-04-20 01:00:00 13.2 7 Nordeste 19 Nordeste 0 -- -- 41
2019-04-20 00:00:00 15.2 16 Nordeste 38 Este 0 -- -- 36
2019-04-19 23:00:00 15.9 22 Este 44 Nordeste 0 -- -- 35
2019-04-19 22:00:00 15.8 23 Este 43 Nordeste 0 -- -- 38
2019-04-19 21:00:00 16.1 13 Nordeste 41 Nordeste 0 -- -- 38
2019-04-19 20:00:00 17.2 28 Nordeste 50 Este 0 -- -- 35
2019-04-19 19:00:00 18.2 35 Nordeste 63 Nordeste 0 -- -- 32
2019-04-19 18:00:00 18.2 31 Nordeste 52 Este 0 -- -- 34
2019-04-19 17:00:00 19 20 Nordeste 44 Nordeste 0 -- -- 37
2019-04-19 16:00:00 19 21 Nordeste 45 Nordeste 0 -- -- 36
2019-04-19 15:00:00 18.4 21 Nordeste 48 Este 0 -- -- 37
2019-04-19 14:00:00 18.3 21 Este 51 Este 0 -- -- 41
2019-04-19 13:00:00 18 23 Este 53 Nordeste 0 -- -- 41
2019-04-19 12:00:00 17.2 33 Este 66 Este 0 -- -- 43
2019-04-19 11:00:00 16.5 37 Este 63 Este 0 -- -- 43
2019-04-19 10:00:00 15 31 Este 49 Nordeste 0 -- -- 44
2019-04-19 09:00:00 14.7 25 Este 51 Este 0 -- -- 43
2019-04-19 08:00:00 15.1 31 Este 65 Este 0 -- -- 40
2019-04-19 07:00:00 14.9 35 Este 58 Este 0 -- -- 43
2019-04-19 06:00:00 14.3 33 Este 63 Este 0 -- -- 46
2019-04-19 05:00:00 13.8 32 Este 58 Este 0 -- -- 50
2019-04-19 04:00:00 13.4 24 Nordeste 55 Este 0 -- -- 52
2019-04-19 03:00:00 13.6 34 Este 57 Este 0 -- -- 50
2019-04-19 02:00:00 13.6 32 Este 55 Este 0 -- -- 50
2019-04-19 01:00:00 13.9 11 Sudeste 47 Este 0 -- -- 46
2019-04-19 00:00:00 13.9 25 Este 54 Este 0 -- -- 45
2019-04-18 23:00:00 14.3 34 Este 54 Este 0 -- -- 41
2019-04-18 22:00:00 14.7 21 Nordeste 39 Nordeste 0 -- -- 41
2019-04-18 21:00:00 15.2 21 Nordeste 42 Este 0 -- -- 45
2019-04-18 20:00:00 15.3 26 Nordeste 51 Nordeste 0 -- -- 48
2019-04-18 19:00:00 16.3 24 Nordeste 57 Nordeste 0 -- -- 49
2019-04-18 18:00:00 16.8 36 Este 55 Este 0 -- -- 47
2019-04-18 17:00:00 16.7 31 Este 56 Nordeste 0 -- -- 47
2019-04-18 16:00:00 16.8 16 Nordeste 53 Este 0 -- -- 47
2019-04-18 15:00:00 17 31 Este 56 Este 0 -- -- 46
2019-04-18 14:00:00 16.9 31 Este 49 Este 0 -- -- 48
2019-04-18 13:00:00 15 23 Nordeste 47 Nordeste 0 -- -- 56
2019-04-18 12:00:00 13.8 20 Nordeste 37 Nordeste 0 -- -- 62
2019-04-18 11:00:00 13.6 15 Nordeste 30 Este 0 -- -- 66
2019-04-18 10:00:00 13.5 5 Sudeste 16 Nordeste 0 -- -- 72
2019-04-18 09:00:00 10.8 7 Sudeste 13 Sudeste 0 -- -- 79
2019-04-18 08:00:00 9 4 Este 15 Nordeste 0 -- -- 85
2019-04-18 07:00:00 9 9 Nordeste 19 Norte 0 -- -- 86
2019-04-18 06:00:00 8.8 6 Norte 22 Este 0 -- -- 87
2019-04-18 05:00:00 9.3 11 Nordeste 26 Este 0 -- -- 86
2019-04-18 04:00:00 9.4 12 Nordeste 21 Este 0 -- -- 83
2019-04-18 03:00:00 10.3 7 Sudeste 10 Sudeste 0 -- -- 81
2019-04-18 02:00:00 12 3 Nordeste 24 Este 0 -- -- 76
2019-04-18 01:00:00 12.6 12 Nordeste 24 Este 0 -- -- 73
2019-04-18 00:00:00 12.4 10 Nordeste 30 Este 0 -- -- 67
2019-04-17 23:00:00 12.6 13 Nordeste 31 Este 0 -- -- 67
2019-04-17 22:00:00 13.2 15 Nordeste 26 Nordeste 0 -- -- 69
2019-04-17 21:00:00 13.4 9 Este 18 Norte 0 -- -- 68
2019-04-17 20:00:00 15.1 6 Nordeste 19 Este 0 -- -- 60
2019-04-17 19:00:00 17.3 12 Este 31 Sudeste 0 -- -- 55
2019-04-17 18:00:00 18.2 10 Sur 33 Sur 0 -- -- 54
2019-04-17 17:00:00 19 15 Sur 34 Sudoeste 0 -- -- 54
2019-04-17 16:00:00 20.3 13 Sur 31 Sur 0 -- -- 50
2019-04-17 15:00:00 19.7 14 Sudeste 30 Sudeste 0 -- -- 51
2019-04-17 14:00:00 18.1 19 Este 33 Este 0 -- -- 54
2019-04-17 13:00:00 17.8 13 Este 27 Este 0 -- -- 56
2019-04-17 12:00:00 17 9 Sudeste 28 Este 0 -- -- 56
2019-04-17 11:00:00 15.9 13 Sudeste 26 Este 0 -- -- 58
2019-04-17 10:00:00 13.9 10 Nordeste 20 Este 0 -- -- 67
2019-04-17 09:00:00 9.5 12 Nordeste 20 Este 0 -- -- 84
2019-04-17 08:00:00 6.9 12 Nordeste 19 Nordeste 0 -- -- 92
2019-04-17 07:00:00 6.5 14 Nordeste 19 Nordeste 0 -- -- 92
2019-04-17 06:00:00 7.1 12 Nordeste 18 Nordeste 0 -- -- 91
2019-04-17 05:00:00 6.3 11 Nordeste 15 Nordeste 0 -- -- 92
2019-04-17 04:00:00 5.4 9 Nordeste 13 Nordeste 0 -- -- 91
2019-04-17 03:00:00 6.9 8 Nordeste 21 Este 0 -- -- 84
2019-04-17 02:00:00 8.4 10 Este 18 Este 0 -- -- 81
2019-04-17 01:00:00 6.8 6 Nordeste 13 Este 0 -- -- 85
2019-04-17 00:00:00 8.2 12 Este 14 Este 0 -- -- 82
2019-04-16 23:00:00 9.1 7 Nordeste 12 Nordeste 0 -- -- 79
2019-04-16 22:00:00 11.1 8 Este 16 Sudeste 0 -- -- 71
2019-04-16 21:00:00 12.7 4 Norte 21 Sur 0 -- -- 65
2019-04-16 20:00:00 15.3 12 Sudoeste 27 Sur 0 -- -- 57
2019-04-16 19:00:00 17.3 15 Sur 27 Sur 0 -- -- 54
2019-04-16 18:00:00 18.8 10 Sur 26 Sudoeste 0 -- -- 47
2019-04-16 17:00:00 18.4 12 Sur 27 Sur 0 -- -- 51
2019-04-16 16:00:00 17.9 5 Sudeste 17 Este 0 -- -- 56
2019-04-16 15:00:00 16.4 5 Nordeste 19 Sur 0 -- -- 57
2019-04-16 14:00:00 16.1 8 Sur 18 Sur 0 -- -- 59
2019-04-16 13:00:00 16.5 7 Sudoeste 20 Sur 0 -- -- 61
2019-04-16 12:00:00 14.7 8 Sudoeste 16 Sudoeste 0 -- -- 67
2019-04-16 11:00:00 13 8 Sudoeste 19 Sudoeste 0 -- -- 71
2019-04-16 10:00:00 13 13 Sudoeste 17 Sur 0 -- -- 72
2019-04-16 09:00:00 10.9 9 Este 11 Este 0 -- -- 80
2019-04-16 08:00:00 8.1 4 Nordeste 14 Nordeste 0 -- -- 90
2019-04-16 07:00:00 7.9 8 Este 14 Nordeste 0 -- -- 90
2019-04-16 06:00:00 7.4 6 Nordeste 13 Este 0 -- -- 90
2019-04-16 05:00:00 6.3 9 Nordeste 17 Este 0 -- -- 91
2019-04-16 04:00:00 6.7 10 Nordeste 14 Nordeste 0 -- -- 88
2019-04-16 03:00:00 6.9 10 Nordeste 19 Este 0 -- -- 88
2019-04-16 02:00:00 6.8 8 Este 25 Nordeste 0 -- -- 87
2019-04-16 01:00:00 7.8 14 Nordeste 30 Nordeste 1.2 -- -- 84
2019-04-16 00:00:00 10.5 13 Nordeste 42 Este 0 -- -- 58
2019-04-15 23:00:00 11.4 22 Este 37 Este 0 -- -- 52
2019-04-15 22:00:00 11.9 18 Este 29 Nordeste 0 -- -- 50
2019-04-15 21:00:00 12.1 17 Este 27 Nordeste 0 -- -- 52
2019-04-15 20:00:00 13 14 Nordeste 29 Nordeste 0 -- -- 50
2019-04-15 19:00:00 15.3 12 Este 30 Sudeste 0 -- -- 48
2019-04-15 18:00:00 14.7 13 Este 36 Sudeste 0 -- -- 52
2019-04-15 17:00:00 16.3 13 Este 31 Este 0 -- -- 50
2019-04-15 16:00:00 17.2 11 Sudeste 29 Sudeste 0 -- -- 52
2019-04-15 15:00:00 18 13 Este 36 Este 0 -- -- 54
2019-04-15 14:00:00 17.8 14 Este 29 Sudeste 0 -- -- 55
2019-04-15 13:00:00 16.9 14 Este 27 Este 0 -- -- 54
2019-04-15 12:00:00 16.2 6 Sudeste 27 Sudeste 0 -- -- 53
2019-04-15 11:00:00 15.7 9 Este 24 Este 0 -- -- 51
2019-04-15 10:00:00 15 11 Este 19 Este 0 -- -- 53
2019-04-15 09:00:00 11.3 8 Nordeste 15 Nordeste 0 -- -- 70
2019-04-15 08:00:00 8.6 11 Nordeste 15 Nordeste 0 -- -- 77
2019-04-15 07:00:00 8.7 10 Nordeste 14 Nordeste 0 -- -- 77
2019-04-15 06:00:00 7.6 9 Nordeste 14 Nordeste 0 -- -- 84
2019-04-15 05:00:00 9.3 6 Nordeste 21 Nordeste 0 -- -- 80
2019-04-15 04:00:00 10.4 11 Nordeste 20 Este 0 -- -- 78
2019-04-15 03:00:00 10.8 8 Nordeste 14 Nordeste 0 -- -- 81
2019-04-15 02:00:00 10.5 5 Nordeste 15 Nordeste 0 -- -- 82
2019-04-15 01:00:00 12.3 10 Nordeste 17 Nordeste 0 -- -- 76
2019-04-15 00:00:00 13.8 7 Norte 22 Nordeste 0 -- -- 70
2019-04-14 23:00:00 16.1 11 Este 17 Este 0 -- -- 62
2019-04-14 22:00:00 16.5 10 Norte 17 Nordeste 0 -- -- 60
2019-04-14 21:00:00 19.1 7 Norte 22 Oeste 0 -- -- 52
2019-04-14 20:00:00 21.2 13 Oeste 33 Oeste 0 -- -- 47
2019-04-14 19:00:00 23.1 18 Oeste 45 Oeste 0 -- -- 42
2019-04-14 18:00:00 24.1 21 Sudoeste 48 Sudoeste 0 -- -- 42
2019-04-14 17:00:00 23.5 22 Sudoeste 41 Sudoeste 0 -- -- 43
2019-04-14 16:00:00 23.1 18 Sudoeste 36 Oeste 0 -- -- 42
2019-04-14 15:00:00 22.2 19 Sudoeste 30 Sur 0 -- -- 41
2019-04-14 14:00:00 19.7 16 Sudoeste 32 Oeste 0 -- -- 41
2019-04-14 13:00:00 18.3 10 Sur 21 Sudoeste 0 -- -- 40
2019-04-14 12:00:00 16.7 11 Sudoeste 21 Sudoeste 0 -- -- 38
2019-04-14 11:00:00 15.7 8 Sudoeste 12 Sudoeste 0 -- -- 38
2019-04-14 10:00:00 13.8 5 Este 14 Nordeste 0 -- -- 40
2019-04-14 09:00:00 8.4 9 Este 14 Nordeste 0 -- -- 54
2019-04-14 08:00:00 5.2 9 Nordeste 15 Nordeste 0 -- -- 59
2019-04-14 07:00:00 6.1 12 Nordeste 16 Norte 0 -- -- 52
2019-04-14 06:00:00 5 9 Nordeste 14 Este 0 -- -- 57
2019-04-14 05:00:00 5.2 9 Nordeste 13 Este 0 -- -- 57
2019-04-14 04:00:00 6.8 7 Nordeste 15 Nordeste 0 -- -- 50
2019-04-14 03:00:00 6.8 7 Este 16 Nordeste 0 -- -- 49
2019-04-14 02:00:00 6.9 10 Nordeste 17 Nordeste 0 -- -- 51
2019-04-14 01:00:00 5.9 9 Nordeste 15 Nordeste 0 -- -- 53
2019-04-14 00:00:00 6.3 9 Nordeste 17 Este 0 -- -- 52
2019-04-13 23:00:00 7.8 5 Nordeste 12 Este 0 -- -- 48
2019-04-13 22:00:00 9.4 7 Nordeste 11 Noroeste 0 -- -- 44
2019-04-13 21:00:00 12.2 5 Nordeste 10 Oeste 0 -- -- 38
2019-04-13 20:00:00 18.3 7 Sudoeste 17 Noroeste 0 -- -- 25
2019-04-13 19:00:00 19.8 13 Sudoeste 31 Sudoeste 0 -- -- 26
2019-04-13 18:00:00 20.1 17 Sudoeste 34 Sudoeste 0 -- -- 26
2019-04-13 17:00:00 19.7 18 Sudoeste 35 Sudoeste 0 -- -- 29
2019-04-13 16:00:00 19.5 18 Sudoeste 33 Oeste 0 -- -- 32
2019-04-13 15:00:00 18 20 Sudoeste 31 Sur 0 -- -- 41
2019-04-13 14:00:00 16.8 21 Sudoeste 34 Sudoeste 0 -- -- 48
2019-04-13 13:00:00 15.2 16 Sudoeste 24 Sur 0 -- -- 56
2019-04-13 12:00:00 13.6 10 Sudoeste 19 Sudoeste 0 -- -- 57
2019-04-13 11:00:00 12.1 10 Sudoeste 15 Sur 0 -- -- 62
2019-04-13 10:00:00 10.3 7 Sudoeste 13 Sudoeste 0 -- -- 66
2019-04-13 09:00:00 7.4 3 Sudeste 10 Nordeste 0 -- -- 73
2019-04-13 08:00:00 1.7 9 Nordeste 14 Nordeste 0 -- -- 89
2019-04-13 07:00:00 2.2 6 Nordeste 13 Este 0 -- -- 88
2019-04-13 06:00:00 2.5 6 Nordeste 14 Nordeste 0 -- -- 86
2019-04-13 05:00:00 1.9 9 Nordeste 12 Este 0 -- -- 89
2019-04-13 04:00:00 3 5 Nordeste 10 Nordeste 0 -- -- 84
2019-04-13 03:00:00 4 5 Nordeste 10 Este 0 -- -- 82
2019-04-13 02:00:00 4.3 6 Norte 9 Nordeste 0 -- -- 55
2019-04-13 01:00:00 6.5 7 Nordeste 15 Este 0 -- -- 48
2019-04-13 00:00:00 9.3 2 Norte 21 Nordeste 0 -- -- 38
2019-04-12 23:00:00 11.4 12 Nordeste 21 Nordeste 0 -- -- 31
2019-04-12 22:00:00 12.4 10 Nordeste 14 Nordeste 0 -- -- 29
2019-04-12 21:00:00 13.2 6 Nordeste 17 Noroeste 0 -- -- 31
2019-04-12 20:00:00 16.8 9 Oeste 27 Oeste 0 -- -- 34
2019-04-12 19:00:00 18.4 12 Sudoeste 36 Oeste 0 -- -- 34
2019-04-12 18:00:00 18.9 17 Sudoeste 42 Sudoeste 0 -- -- 32
2019-04-12 17:00:00 18.5 26 Sudoeste 43 Sudoeste 0 -- -- 33
2019-04-12 16:00:00 18.5 25 Sudoeste 41 Sudoeste 0 -- -- 38
2019-04-12 15:00:00 18.6 16 Sudoeste 33 Sudoeste 0 -- -- 40
2019-04-12 14:00:00 16.1 22 Sudoeste 34 Sudoeste 0 -- -- 52
2019-04-12 13:00:00 14.8 17 Sudoeste 24 Sudoeste 0 -- -- 53
2019-04-12 12:00:00 12.6 14 Sudoeste 21 Sudoeste 0 -- -- 63
2019-04-12 11:00:00 11.1 12 Sudoeste 19 Sudoeste 0 -- -- 68
2019-04-12 10:00:00 8.8 6 Sudoeste 11 Sudoeste 0 -- -- 73
2019-04-12 09:00:00 6.1 0 Calma 10 Este 0 -- -- 87
2019-04-12 08:00:00 0.9 6 Nordeste 10 Este 0 -- -- 94
2019-04-12 07:00:00 1.2 5 Nordeste 10 Este 0 -- -- 94
2019-04-12 06:00:00 1.8 5 Nordeste 14 Este 0 -- -- 90
2019-04-12 05:00:00 2.7 5 Nordeste 11 Este 0 -- -- 87
2019-04-12 04:00:00 3.7 3 Sur 10 Nordeste 0 -- -- 78
2019-04-12 03:00:00 5 7 Nordeste 14 Nordeste 0 -- -- 74
2019-04-12 02:00:00 6.3 9 Nordeste 12 Este 0 -- -- 70
2019-04-12 01:00:00 10 5 Nordeste 12 Este 0 -- -- 59
2019-04-12 00:00:00 12 10 Nordeste 24 Norte 0 -- -- 47
2019-04-11 23:00:00 12 8 Nordeste 22 Nordeste 0 -- -- 48
2019-04-11 22:00:00 12.8 12 Nordeste 19 Nordeste 0 -- -- 44
2019-04-11 21:00:00 13.4 10 Nordeste 20 Norte 0 -- -- 41
2019-04-11 20:00:00 14.8 12 Nordeste 23 Nordeste 0 -- -- 37
2019-04-11 19:00:00 16.1 10 Norte 25 Norte 0 -- -- 33
2019-04-11 18:00:00 17.3 12 Nordeste 20 Nordeste 0 -- -- 29
2019-04-11 17:00:00 18.2 6 Norte 32 Sudoeste 0 -- -- 28
2019-04-11 16:00:00 17.1 18 Sudoeste 31 Oeste 0 -- -- 36
2019-04-11 15:00:00 17.4 16 Sudoeste 31 Sudoeste 0 -- -- 41
2019-04-11 14:00:00 17.1 20 Sudoeste 35 Sudoeste 0 -- -- 42
2019-04-11 13:00:00 14.7 16 Sudoeste 23 Sudoeste 0 -- -- 55
2019-04-11 12:00:00 12.8 12 Sur 18 Sudoeste 0 -- -- 61
2019-04-11 11:00:00 11.2 8 Sudoeste 15 Sudoeste 0 -- -- 65
2019-04-11 10:00:00 9 8 Sudoeste 10 Sur 0 -- -- 76
2019-04-11 09:00:00 5.7 3 Sur 6 Nordeste 0 -- -- 83
2019-04-11 08:00:00 0.6 5 Nordeste 10 Este 0 -- -- 90
2019-04-11 07:00:00 1 4 Norte 9 Nordeste 0 -- -- 86
2019-04-11 06:00:00 2.5 3 Este 15 Este 0 -- -- 80
2019-04-11 05:00:00 2.2 5 Nordeste 13 Este 0 -- -- 81
2019-04-11 04:00:00 3.3 7 Nordeste 15 Este 0 -- -- 77
2019-04-11 03:00:00 3.1 7 Nordeste 14 Este 0 -- -- 78
2019-04-11 02:00:00 3.7 8 Nordeste 12 Este 0 -- -- 78
2019-04-11 01:00:00 5.1 10 Nordeste 17 Norte 0 -- -- 73
2019-04-11 00:00:00 7.3 9 Nordeste 14 Nordeste 0 -- -- 67
2019-04-10 23:00:00 8.3 10 Nordeste 14 Nordeste 0 -- -- 66
2019-04-10 22:00:00 8.6 7 Nordeste 18 Norte 0 -- -- 74
2019-04-10 21:00:00 11.2 10 Norte 19 Norte 0 -- -- 60
2019-04-10 20:00:00 11.7 6 Noroeste 21 Noroeste 0 -- -- 61
2019-04-10 19:00:00 12.9 9 Oeste 19 Sudoeste 0 -- -- 60
2019-04-10 18:00:00 13 7 Nordeste 13 Noroeste 0 -- -- 63
2019-04-10 17:00:00 11.2 3 Norte 12 Sudoeste 0 -- -- 80
2019-04-10 16:00:00 -- -- -- -- -- 1.8 -- -- --
2019-04-10 15:00:00 13.2 11 Oeste 30 Sudoeste 0 -- -- 61
2019-04-10 14:00:00 15.3 17 Sudoeste 29 Sudoeste 0 -- -- 62
2019-04-10 13:00:00 12.7 16 Sur 24 Sudeste 0 -- -- 73
2019-04-10 12:00:00 9.9 8 Sur 18 Sudoeste 0 -- -- 83
2019-04-10 11:00:00 8.3 9 Sudoeste 14 Sudoeste 0 -- -- 89
2019-04-10 10:00:00 9 4 Sudoeste 9 Sudoeste 0 -- -- 87
2019-04-10 09:00:00 7.2 4 Sur 10 Este 0 -- -- 90
2019-04-10 08:00:00 4 7 Nordeste 12 Nordeste 0 -- -- 98
2019-04-10 07:00:00 3.1 8 Nordeste 11 Nordeste 0 -- -- 96
2019-04-10 06:00:00 4 5 Nordeste 14 Este 0 -- -- 95
2019-04-10 05:00:00 4.8 6 Nordeste 11 Este 0 -- -- 93
2019-04-10 04:00:00 5.9 4 Nordeste 10 Este 0 -- -- 92
2019-04-10 03:00:00 7 8 Nordeste 12 Nordeste 0 -- -- 92
2019-04-10 02:00:00 7.3 6 Nordeste 12 Nordeste 0 -- -- 91
2019-04-10 01:00:00 7.7 6 Nordeste 17 Nordeste 0.4 -- -- 90
2019-04-10 00:00:00 9 8 Norte 15 Norte 0 -- -- 78
2019-04-09 23:00:00 9.3 4 Nordeste 9 Nordeste 0 -- -- 72
2019-04-09 22:00:00 9.6 4 Nordeste 11 Norte 0 -- -- 67
2019-04-09 21:00:00 11.2 6 Nordeste 14 Nordeste 0 -- -- 58
2019-04-09 20:00:00 12.8 6 Nordeste 33 Nordeste 0 -- -- 52
2019-04-09 19:00:00 15.3 17 Norte 36 Sudoeste 0 -- -- 48
2019-04-09 18:00:00 17.3 13 Sudoeste 39 Oeste 0 -- -- 37
2019-04-09 17:00:00 17 23 Sudoeste 50 Sudoeste 0 -- -- 36
2019-04-09 16:00:00 16.9 22 Oeste 42 Sudoeste 0 -- -- 41
2019-04-09 15:00:00 16.7 21 Sudoeste 46 Sur 0 -- -- 44
2019-04-09 14:00:00 16.5 19 Sudoeste 42 Sur 0 -- -- 46
2019-04-09 13:00:00 15.9 18 Sudoeste 36 Oeste 0 -- -- 51
2019-04-09 12:00:00 14.8 17 Sudoeste 31 Sudoeste 0 -- -- 56
2019-04-09 11:00:00 13.4 12 Oeste 29 Oeste 0 -- -- 62
2019-04-09 10:00:00 10.9 13 Oeste 24 Oeste 0 -- -- 69
2019-04-09 09:00:00 9.5 14 Oeste 26 Oeste 0 -- -- 75
2019-04-09 08:00:00 7.7 0 Calma 9 Sudoeste 0 -- -- 88
2019-04-09 07:00:00 7.9 6 Sudoeste 13 Sudoeste 0 -- -- 90
2019-04-09 06:00:00 8.2 4 Norte 15 Oeste 0 -- -- 87
2019-04-09 05:00:00 8.1 2 Sur 9 Nordeste 0 -- -- 88
2019-04-09 04:00:00 7.5 5 Nordeste 12 Este 0 -- -- 93
2019-04-09 03:00:00 7.7 4 Nordeste 7 Norte 0.4 -- -- 91
2019-04-09 02:00:00 7.5 3 Este 8 Nordeste 0 -- -- 80
2019-04-09 01:00:00 7.7 6 Nordeste 11 Este 0 -- -- 76
2019-04-09 00:00:00 7.7 5 Nordeste 15 Noroeste 0 -- -- 75
2019-04-08 23:00:00 11.6 6 Noroeste 15 Noroeste 0 -- -- 56
2019-04-08 22:00:00 11.3 4 Sudoeste 14 Sudoeste 0 -- -- 66
2019-04-08 21:00:00 12.7 8 Sudoeste 31 Sudoeste 0 -- -- 66
2019-04-08 20:00:00 13.7 8 Oeste 23 Sudoeste 0 -- -- 63
2019-04-08 19:00:00 16.3 16 Sudoeste 28 Oeste 0 -- -- 55
2019-04-08 18:00:00 17.8 11 Sudoeste 28 Sudoeste 0 -- -- 51
2019-04-08 17:00:00 17.6 16 Sudoeste 36 Oeste 0 -- -- 52
2019-04-08 16:00:00 17.5 18 Oeste 39 Oeste 0 -- -- 54
2019-04-08 15:00:00 16.3 13 Sudoeste 29 Oeste 0 -- -- 61
2019-04-08 14:00:00 15 18 Oeste 30 Sudoeste 0 -- -- 60
2019-04-08 13:00:00 13.4 17 Sudoeste 31 Sudoeste 0 -- -- 69
2019-04-08 12:00:00 12.7 18 Sudoeste 27 Sur 0 -- -- 65
2019-04-08 11:00:00 11.8 10 Sudoeste 14 Sudoeste 0 -- -- 68
2019-04-08 10:00:00 9.2 3 Sur 9 Sudoeste 0 -- -- 77
2019-04-08 09:00:00 7.4 3 Este 6 Este 0 -- -- 86
2019-04-08 08:00:00 5 5 Nordeste 10 Nordeste 0 -- -- 93
2019-04-08 07:00:00 4.8 8 Este 11 Nordeste 0 -- -- 93
2019-04-08 06:00:00 4.8 8 Nordeste 15 Nordeste 0 -- -- 92
2019-04-08 05:00:00 4.6 8 Nordeste 15 Nordeste 0 -- -- 93
2019-04-08 04:00:00 2.7 7 Nordeste 12 Nordeste 0 -- -- 94
2019-04-08 03:00:00 5 9 Nordeste 13 Nordeste 0 -- -- 91
2019-04-08 02:00:00 5.1 10 Nordeste 14 Norte 0 -- -- 93
2019-04-08 01:00:00 3.5 7 Nordeste 10 Nordeste 0 -- -- 96
2019-04-08 00:00:00 3.9 6 Nordeste 10 Nordeste 0 -- -- 93
2019-04-07 23:00:00 5.2 6 Nordeste 12 Este 0 -- -- 92
2019-04-07 22:00:00 6.4 5 Norte 10 Norte 0 -- -- 89
2019-04-07 21:00:00 7.3 6 Nordeste 14 Nordeste 0 -- -- 88
2019-04-07 20:00:00 8.5 6 Nordeste 13 Nordeste 0.4 -- -- 87
2019-04-07 19:00:00 9.4 9 Nordeste 31 Nordeste 0.4 -- -- 74
2019-04-07 18:00:00 13.6 13 Oeste 37 Sudoeste 0 -- -- 43
2019-04-07 17:00:00 15.4 20 Oeste 41 Sudoeste 0 -- -- 46
2019-04-07 16:00:00 15.6 23 Sudoeste 39 Oeste 0 -- -- 47
2019-04-07 15:00:00 14.5 18 Sudoeste 33 Sudoeste 0 -- -- 54
2019-04-07 14:00:00 13 16 Oeste 33 Oeste 0 -- -- 56
2019-04-07 13:00:00 14.3 12 Sudoeste 22 Sudoeste 0 -- -- 50
2019-04-07 12:00:00 12 9 Norte 27 Noroeste 0 -- -- 63
2019-04-07 11:00:00 9.9 14 Norte 31 Norte 0 -- -- 66
2019-04-07 10:00:00 9 5 Sur 12 Sudeste 0 -- -- 83
2019-04-07 09:00:00 4.4 3 Este 10 Noroeste 0 -- -- 100
2019-04-07 08:00:00 1.5 4 Nordeste 8 Nordeste 0 -- -- 98
2019-04-07 07:00:00 3.3 4 Noroeste 14 Oeste 0 -- -- 96
2019-04-07 06:00:00 3.2 0 Calma 9 Norte 0 -- -- 98
2019-04-07 05:00:00 1.9 6 Nordeste 10 Nordeste 0 -- -- 96
2019-04-07 04:00:00 3.1 6 Nordeste 12 Norte 0 -- -- 96
2019-04-07 03:00:00 4.1 6 Norte 13 Nordeste 0 -- -- 96
2019-04-07 02:00:00 3.7 8 Nordeste 15 Nordeste 0 -- -- 96
2019-04-07 01:00:00 3.6 8 Nordeste 15 Nordeste 0 -- -- 94
2019-04-07 00:00:00 4.9 9 Nordeste 15 Este 0 -- -- 94
2019-04-06 23:00:00 5.2 9 Nordeste 14 Nordeste 1.4 -- -- 95
2019-04-06 22:00:00 5.5 5 Sudoeste 35 Sudoeste 2.4 -- -- 92
2019-04-06 21:00:00 7.8 13 Norte 26 Norte 0.2 -- -- 75
2019-04-06 20:00:00 9.2 7 Nordeste 16 Sudoeste 0 -- -- 65
2019-04-06 19:00:00 11.7 9 Sudoeste 22 Sudoeste 0 -- -- 51
2019-04-06 18:00:00 12.5 19 Sudoeste 32 Sudoeste 0 -- -- 47
2019-04-06 17:00:00 11.2 6 Sudoeste 27 Sudoeste 0 -- -- 56
2019-04-06 16:00:00 11.9 15 Sudoeste 25 Sudoeste 0 -- -- 55
2019-04-06 15:00:00 12.4 11 Oeste 25 Oeste 0 -- -- 60
2019-04-06 14:00:00 9.7 15 Sudoeste 25 Sudoeste 0 -- -- 73
2019-04-06 13:00:00 7.1 12 Sudoeste 31 Sudoeste 0 -- -- 80
2019-04-06 12:00:00 7.3 11 Sudoeste 18 Sudoeste 0 -- -- 91
2019-04-06 11:00:00 5.2 10 Sudoeste 20 Sudoeste 0 -- -- 96
2019-04-06 10:00:00 4.7 9 Sudoeste 21 Sudoeste 0 -- -- 97
2019-04-06 09:00:00 4.3 7 Oeste 22 Oeste 0.6 -- -- 94
2019-04-06 08:00:00 4.2 12 Oeste 22 Oeste 0.2 -- -- 95
2019-04-06 07:00:00 4 7 Oeste 16 Oeste 0.4 -- -- 95
2019-04-06 06:00:00 4 11 Oeste 23 Oeste 0 -- -- 97
2019-04-06 05:00:00 4 12 Sudoeste 24 Oeste 0 -- -- 98
2019-04-06 04:00:00 5 9 Sudoeste 17 Sudoeste 0 -- -- 97
2019-04-06 03:00:00 5.1 4 Norte 25 Oeste 3.6 -- -- 95
2019-04-06 02:00:00 6.4 9 Este 14 Este 2.2 -- -- 96
2019-04-06 01:00:00 6.7 5 Sudeste 13 Sur 0.4 -- -- 96
2019-04-06 00:00:00 6.8 2 Sur 20 Este 0 -- -- 95
2019-04-05 23:00:00 7.1 12 Nordeste 22 Nordeste 0.6 -- -- 94
2019-04-05 22:00:00 7.2 13 Nordeste 21 Nordeste 0.2 -- -- 90
2019-04-05 21:00:00 7.1 4 Este 13 Sudeste 0.8 -- -- 91
2019-04-05 20:00:00 7.4 10 Sur 35 Sur 1.6 -- -- 91
2019-04-05 19:00:00 9.8 16 Este 31 Este 0 -- -- 78
2019-04-05 18:00:00 11.4 12 Sudeste 30 Sudeste 0 -- -- 67
2019-04-05 17:00:00 13.3 14 Sudeste 30 Sudeste 0 -- -- 58
2019-04-05 16:00:00 15.5 10 Sur 22 Este 0 -- -- 49
2019-04-05 15:00:00 15.4 9 Sur 22 Sur 0 -- -- 46
2019-04-05 14:00:00 12.5 6 Sudoeste 18 Este 0 -- -- 62
2019-04-05 13:00:00 10.9 12 Este 26 Este 0 -- -- 70
2019-04-05 12:00:00 8.5 14 Nordeste 23 Este 0.2 -- -- 80
2019-04-05 11:00:00 4.9 12 Nordeste 18 Nordeste 0.6 -- -- 89
2019-04-05 10:00:00 4 12 Nordeste 17 Nordeste 0.4 -- -- 88
2019-04-05 09:00:00 3.7 16 Nordeste 20 Nordeste 0 -- -- 69
2019-04-05 08:00:00 3.3 13 Nordeste 22 Nordeste 0 -- -- 61
2019-04-05 07:00:00 3.2 17 Nordeste 22 Nordeste 0 -- -- 59
2019-04-05 06:00:00 3.2 15 Nordeste 21 Nordeste 0 -- -- 58
2019-04-05 05:00:00 2.7 15 Nordeste 19 Nordeste 0 -- -- 59
2019-04-05 04:00:00 3.5 10 Nordeste 19 Nordeste 0 -- -- 57
2019-04-05 03:00:00 3.2 10 Nordeste 18 Nordeste 0 -- -- 56
2019-04-05 02:00:00 2.8 9 Nordeste 13 Nordeste 0 -- -- 59
2019-04-05 01:00:00 1.4 7 Nordeste 11 Nordeste 0 -- -- 63
2019-04-05 00:00:00 2.7 8 Nordeste 15 Nordeste 0 -- -- 57
2019-04-04 23:00:00 1.9 7 Nordeste 12 Norte 0 -- -- 60
2019-04-04 22:00:00 4.6 9 Nordeste 17 Este 0 -- -- 51
2019-04-04 21:00:00 6.3 0 Calma 7 Sudoeste 0 -- -- 46
2019-04-04 20:00:00 9.9 6 Sudoeste 24 Sudoeste 0 -- -- 37
2019-04-04 19:00:00 12.2 15 Sudoeste 32 Sudoeste 0 -- -- 32
2019-04-04 18:00:00 12.8 20 Sudoeste 41 Sudoeste 0 -- -- 34
2019-04-04 17:00:00 13.2 22 Sudoeste 38 Sudoeste 0 -- -- 35
2019-04-04 16:00:00 12.7 22 Sudoeste 40 Oeste 0 -- -- 36
2019-04-04 15:00:00 12.9 18 Sudoeste 36 Sudoeste 0 -- -- 36
2019-04-04 14:00:00 12 17 Sudoeste 35 Sudoeste 0 -- -- 40
2019-04-04 13:00:00 11.6 10 Oeste 33 Sudoeste 0 -- -- 38
2019-04-04 12:00:00 9.3 20 Sudoeste 29 Sudoeste 0 -- -- 50
2019-04-04 11:00:00 7.7 12 Sur 24 Sudoeste 0 -- -- 53
2019-04-04 10:00:00 5.8 6 Sudoeste 13 Sudoeste 0 -- -- 55
2019-04-04 09:00:00 3.2 8 Nordeste 17 Norte 0 -- -- 65
2019-04-04 08:00:00 -1.8 6 Nordeste 13 Este 0 -- -- 80
2019-04-04 07:00:00 -1 6 Sudoeste 14 Sudoeste 0 -- -- 77
2019-04-04 06:00:00 -1.4 4 Este 14 Noroeste 0 -- -- 77
2019-04-04 05:00:00 0.9 7 Sudoeste 18 Noroeste 0 -- -- 70
2019-04-04 04:00:00 1.4 9 Oeste 20 Noroeste 0 -- -- 68
2019-04-04 03:00:00 2.6 11 Norte 32 Norte 0 -- -- 64
2019-04-04 02:00:00 2.9 12 Oeste 26 Oeste 0 -- -- 64
2019-04-04 01:00:00 4 6 Oeste 33 Oeste 0 -- -- 63
2019-04-04 00:00:00 4.9 8 Oeste 27 Noroeste 0 -- -- 62
2019-04-03 23:00:00 6 9 Oeste 36 Oeste 0 -- -- 62
2019-04-03 22:00:00 5.3 9 Oeste 19 Oeste 0 -- -- 67
2019-04-03 21:00:00 5.3 6 Sudoeste 20 Sudoeste 0 -- -- 85
2019-04-03 20:00:00 7 14 Sudoeste 28 Sudoeste 0 -- -- 74
2019-04-03 19:00:00 7.9 15 Sudoeste 22 Sur 0 -- -- 74
2019-04-03 18:00:00 8.3 9 Sudoeste 22 Sudoeste 0 -- -- 76
2019-04-03 17:00:00 9 10 Sudoeste 23 Oeste 0 -- -- 75
2019-04-03 16:00:00 9.7 13 Sudoeste 28 Oeste 0 -- -- 72
2019-04-03 15:00:00 10.4 18 Sudoeste 29 Sudoeste 0 -- -- 62
2019-04-03 14:00:00 10.5 13 Sudoeste 26 Sur 0 -- -- 75
2019-04-03 13:00:00 11.1 16 Sudoeste 29 Sudoeste 0 -- -- 72
2019-04-03 12:00:00 11.1 15 Sudoeste 27 Oeste 0 -- -- 75
2019-04-03 11:00:00 10.5 9 Sur 14 Sur 0 -- -- 80
2019-04-03 10:00:00 9.1 7 Sudoeste 10 Sudoeste 0 -- -- 89
2019-04-03 09:00:00 8.7 7 Sudoeste 13 Sur 0 -- -- 89
2019-04-03 08:00:00 8.5 7 Sudeste 12 Sudeste 0 -- -- 90
2019-04-03 07:00:00 7.9 4 Este 8 Este 0 -- -- 92
2019-04-03 06:00:00 8.7 6 Nordeste 14 Este 0.2 -- -- 90
2019-04-03 05:00:00 9 8 Este 12 Este 0 -- -- 87
2019-04-03 04:00:00 9.5 3 Nordeste 9 Norte 0 -- -- 82
2019-04-03 03:00:00 10 6 Nordeste 12 Este 0 -- -- 78
2019-04-03 02:00:00 10.7 4 Nordeste 14 Sudeste 0 -- -- 69
2019-04-03 01:00:00 11.1 7 Este 13 Sudeste 0 -- -- 63
2019-04-03 00:00:00 11.9 7 Oeste 17 Sudoeste 0 -- -- 58
2019-04-02 23:00:00 11.5 3 Este 10 Nordeste 0 -- -- 57
2019-04-02 22:00:00 13.3 5 Oeste 15 Oeste 0 -- -- 52
2019-04-02 21:00:00 13.4 3 Sudoeste 15 Sudoeste 0 -- -- 49
2019-04-02 20:00:00 15.8 9 Sudoeste 28 Oeste 0 -- -- 42
2019-04-02 19:00:00 17.9 14 Sudoeste 31 Oeste 0 -- -- 38
2019-04-02 18:00:00 18.3 22 Sudoeste 41 Sudoeste 0 -- -- 44
2019-04-02 17:00:00 16.9 19 Sudoeste 33 Oeste 0 -- -- 54
2019-04-02 16:00:00 19.7 18 Sudoeste 36 Sudoeste 0 -- -- 44
2019-04-02 15:00:00 18.8 20 Sudoeste 37 Sudoeste 0 -- -- 51
2019-04-02 14:00:00 17.9 21 Sudoeste 32 Sur 0 -- -- 54
2019-04-02 13:00:00 15.9 20 Sudoeste 35 Sudoeste 0 -- -- 59
2019-04-02 12:00:00 15.7 14 Sudoeste 20 Sudoeste 0 -- -- 60
2019-04-02 11:00:00 13.3 6 Sudoeste 14 Sur 0 -- -- 63
2019-04-02 10:00:00 12.2 9 Sudoeste 12 Sudoeste 0 -- -- 63
2019-04-02 09:00:00 9.3 0 Calma 5 Norte 0 -- -- 76
2019-04-02 08:00:00 7.4 3 Nordeste 8 Nordeste 0 -- -- 82
2019-04-02 07:00:00 7.2 5 Nordeste 9 Nordeste 0 -- -- 81
2019-04-02 06:00:00 5.9 4 Nordeste 7 Nordeste 0 -- -- 84
2019-04-02 05:00:00 5.3 4 Nordeste 9 Este 0 -- -- 85
2019-04-02 04:00:00 5.9 5 Nordeste 8 Este 0 -- -- 84
2019-04-02 03:00:00 6.7 5 Nordeste 8 Nordeste 0 -- -- 80
2019-04-02 02:00:00 8.8 0 Calma 9 Este 0 -- -- 75
2019-04-02 01:00:00 8.9 4 Nordeste 10 Este 0 -- -- 73
2019-04-02 00:00:00 9.2 2 Nordeste 5 Norte 0 -- -- 73
2019-04-01 23:00:00 10.1 2 Este 7 Norte 0 -- -- 75
2019-04-01 22:00:00 10.2 2 Nordeste 6 Sudoeste 0 -- -- 76
2019-04-01 21:00:00 10.8 3 Sudoeste 9 Sur 0 -- -- 73
2019-04-01 20:00:00 12.7 8 Sudoeste 15 Sudoeste 0 -- -- 66
2019-04-01 19:00:00 15.1 10 Sudoeste 18 Sur 0 -- -- 48
2019-04-01 18:00:00 15.5 8 Oeste 15 Sur 0 -- -- 48
2019-04-01 17:00:00 15 9 Sudoeste 23 Sudoeste 0 -- -- 44
2019-04-01 16:00:00 16.5 13 Sudoeste 29 Sudoeste 0 -- -- 45
2019-04-01 15:00:00 16.8 19 Sudoeste 30 Sudoeste 0 -- -- 44
2019-04-01 14:00:00 16.2 14 Sudoeste 27 Sudoeste 0 -- -- 50
2019-04-01 13:00:00 15.3 14 Sur 23 Sur 0 -- -- 54
2019-04-01 12:00:00 13 9 Sudoeste 15 Sudoeste 0 -- -- 67
2019-04-01 11:00:00 10.7 9 Sudoeste 13 Sudoeste 0 -- -- 77
2019-04-01 10:00:00 10.2 6 Sudoeste 12 Sudoeste 0 -- -- 77
2019-04-01 09:00:00 7.6 0 Calma 3 Oeste 0 -- -- 89
2019-04-01 08:00:00 6.9 0 Calma 8 Norte 0 -- -- 90
2019-04-01 07:00:00 7.5 6 Nordeste 11 Nordeste 0 -- -- 85
2019-04-01 06:00:00 7.5 5 Nordeste 8 Nordeste 0 -- -- 85
2019-04-01 05:00:00 7.7 4 Nordeste 5 Nordeste 0 -- -- 82
2019-04-01 04:00:00 8.9 3 Norte 6 Sudeste 0 -- -- 78
2019-04-01 03:00:00 9.1 4 Este 6 Este 0 -- -- 76
2019-04-01 02:00:00 10.3 4 Sudeste 9 Este 0 -- -- 67
2019-04-01 01:00:00 10.3 3 Nordeste 13 Este 0 -- -- 65
2019-04-01 00:00:00 10.4 5 Nordeste 13 Este 0 -- -- 70
2019-03-31 23:00:00 10.1 6 Nordeste 10 Este 0 -- -- 79
2019-03-31 22:00:00 10 7 Este 9 Este 0 -- -- 79
2019-03-31 21:00:00 10.7 4 Nordeste 6 Norte 0 -- -- 77
2019-03-31 20:00:00 12.6 4 Sur 10 Sudoeste 0 -- -- 70
2019-03-31 19:00:00 13.9 2 Oeste 10 Este 0 -- -- 63
2019-03-31 18:00:00 13.9 4 Este 13 Sudeste 0 -- -- 63
2019-03-31 17:00:00 13.6 4 Este 13 Sudeste 0 -- -- 66
2019-03-31 16:00:00 13.3 6 Sudeste 20 Este 0 -- -- 65
2019-03-31 15:00:00 12.7 9 Sudeste 19 Sudoeste 0 -- -- 68
2019-03-31 14:00:00 12.6 8 Sudeste 19 Este 0 -- -- 65
2019-03-31 13:00:00 11 11 Nordeste 29 Nordeste 0 -- -- 73
2019-03-31 12:00:00 9.9 12 Este 28 Este 0 -- -- 73
2019-03-31 11:00:00 8.9 13 Este 27 Este 0 -- -- 79
2019-03-31 10:00:00 8.5 9 Este 25 Nordeste 0 -- -- 81
2019-03-31 09:00:00 5.2 7 Nordeste 14 Nordeste 0 -- -- 92
2019-03-31 08:00:00 3.1 10 Nordeste 14 Nordeste 0 -- -- 96
2019-03-31 07:00:00 2.7 10 Nordeste 15 Nordeste 0 -- -- 97
2019-03-31 06:00:00 1.9 7 Nordeste 12 Nordeste 0 -- -- 97
2019-03-31 05:00:00 1.7 7 Este 13 Nordeste 0 -- -- 94
2019-03-31 03:00:00 4.4 8 Nordeste 13 Este 0 -- -- 89
2019-03-31 01:00:00 5.3 9 Nordeste 13 Este 0 -- -- 87
2019-03-31 00:00:00 7 8 Nordeste 24 Nordeste 0 -- -- 82
2019-03-30 23:00:00 7.7 15 Nordeste 22 Nordeste 0 -- -- 81
2019-03-30 22:00:00 8 13 Norte 19 Este 0 -- -- 80
2019-03-30 21:00:00 9.1 8 Este 18 Nordeste 0 -- -- 77
2019-03-30 20:00:00 10.4 5 Sudeste 18 Sur 0 -- -- 70
2019-03-30 19:00:00 12.9 8 Sudoeste 28 Sur 0 -- -- 59
2019-03-30 18:00:00 15.5 10 Sur 22 Sur 0 -- -- 48
2019-03-30 17:00:00 16.8 14 Sur 24 Sur 0 -- -- 41
2019-03-30 16:00:00 17.1 8 Sudeste 28 Sudoeste 0 -- -- 35
2019-03-30 15:00:00 17.6 12 Sur 23 Sudeste 0 -- -- 37
2019-03-30 14:00:00 16.3 7 Sudeste 23 Sur 0 -- -- 45
2019-03-30 13:00:00 16 10 Sudoeste 20 Sudoeste 0 -- -- 47
2019-03-30 12:00:00 14.8 8 Sur 17 Sudeste 0 -- -- 48
2019-03-30 11:00:00 13.4 6 Sudeste 20 Sudeste 0 -- -- 54
2019-03-30 10:00:00 11.5 7 Este 14 Sudeste 0 -- -- 57
2019-03-30 09:00:00 8.9 7 Nordeste 15 Nordeste 0 -- -- 69
2019-03-30 08:00:00 4.7 12 Nordeste 16 Nordeste 0 -- -- 80
2019-03-30 07:00:00 3 12 Nordeste 20 Nordeste 0 -- -- 83
2019-03-30 06:00:00 2.4 9 Nordeste 16 Nordeste 0 -- -- 88
2019-03-30 05:00:00 3.4 12 Nordeste 15 Nordeste 0 -- -- 82
2019-03-30 04:00:00 2.1 8 Nordeste 14 Este 0 -- -- 86
2019-03-30 03:00:00 3.7 12 Nordeste 14 Este 0 -- -- 82
2019-03-30 02:00:00 4.7 7 Nordeste 12 Este 0 -- -- 79
2019-03-30 01:00:00 4.6 7 Nordeste 13 Nordeste 0 -- -- 80
2019-03-30 00:00:00 4.5 8 Nordeste 11 Este 0 -- -- 74
2019-03-29 23:00:00 5.7 5 Nordeste 12 Nordeste 0 -- -- 72
2019-03-29 22:00:00 5.9 6 Nordeste 17 Nordeste 0 -- -- 72
2019-03-29 21:00:00 9.1 5 Nordeste 17 Nordeste 0 -- -- 64
2019-03-29 20:00:00 10.5 8 Este 17 Este 0 -- -- 54
2019-03-29 19:00:00 12.9 10 Sur 23 Sudoeste 0 -- -- 49
2019-03-29 18:00:00 15.3 12 Sur 30 Sudoeste 0 -- -- 43
2019-03-29 17:00:00 15.6 12 Sur 26 Sudoeste 0 -- -- 40
2019-03-29 16:00:00 16.3 10 Este 23 Este 0 -- -- 38
2019-03-29 15:00:00 18.2 6 Nordeste 21 Sudoeste 0 -- -- 35
2019-03-29 14:00:00 17.1 12 Sudoeste 23 Sudoeste 0 -- -- 36
2019-03-29 13:00:00 15.8 12 Sur 23 Sudoeste 0 -- -- 39
2019-03-29 12:00:00 16.4 10 Sur 22 Sudeste 0 -- -- 37
2019-03-29 11:00:00 14.9 9 Sudeste 19 Este 0 -- -- 41
2019-03-29 10:00:00 13.3 6 Nordeste 14 Este 0 -- -- 47
2019-03-29 09:00:00 9.5 9 Este 18 Nordeste 0 -- -- 63
2019-03-29 08:00:00 5.5 13 Nordeste 17 Nordeste 0 -- -- 70
2019-03-29 07:00:00 4.6 13 Nordeste 18 Nordeste 0 -- -- 70
2019-03-29 06:00:00 4.7 15 Nordeste 21 Nordeste 0 -- -- 70
2019-03-29 05:00:00 5.6 16 Nordeste 20 Nordeste 0 -- -- 69
2019-03-29 04:00:00 3 6 Nordeste 14 Este 0 -- -- 78
2019-03-29 03:00:00 2.4 9 Nordeste 13 Este 0 -- -- 80
2019-03-29 02:00:00 4 8 Nordeste 12 Nordeste 0 -- -- 72
2019-03-29 01:00:00 6 7 Nordeste 14 Nordeste 0 -- -- 65
2019-03-29 00:00:00 4.8 9 Nordeste 14 Nordeste 0 -- -- 67
2019-03-28 23:00:00 6.1 9 Nordeste 13 Nordeste 0 -- -- 62
2019-03-28 22:00:00 6.6 7 Nordeste 13 Sudeste 0 -- -- 61
2019-03-28 21:00:00 8.9 8 Este 21 Sudeste 0 -- -- 53
2019-03-28 20:00:00 9.6 13 Sudeste 24 Sudeste 0 -- -- 55
2019-03-28 19:00:00 13.6 2 Noroeste 13 Sur 0 -- -- 47
2019-03-28 18:00:00 16.1 8 Sudoeste 15 Sudoeste 0 -- -- 40
2019-03-28 17:00:00 16.9 8 Sudoeste 20 Sudoeste 0 -- -- 39
2019-03-28 16:00:00 16.8 9 Sur 23 Sudoeste 0 -- -- 39
2019-03-28 15:00:00 16.3 10 Sudoeste 23 Sudoeste 0 -- -- 42
2019-03-28 14:00:00 15 12 Sudoeste 26 Sudoeste 0 -- -- 47
2019-03-28 13:00:00 14.8 10 Sur 18 Sudoeste 0 -- -- 45
2019-03-28 12:00:00 12.7 8 Sudeste 20 Sur 0 -- -- 49
2019-03-28 11:00:00 11.4 8 Sur 17 Sudeste 0 -- -- 54
2019-03-28 10:00:00 10.5 8 Sudeste 14 Sudeste 0 -- -- 56
2019-03-28 09:00:00 8.6 5 Sur 10 Sur 0 -- -- 65
2019-03-28 08:00:00 4 7 Este 10 Este 0 -- -- 86
2019-03-28 07:00:00 0.7 5 Nordeste 9 Nordeste 0 -- -- 92
2019-03-28 06:00:00 1.3 6 Nordeste 10 Este 0 -- -- 88
2019-03-28 05:00:00 1.6 8 Este 12 Este 0 -- -- 87
2019-03-28 04:00:00 2.3 9 Nordeste 14 Este 0 -- -- 85
2019-03-28 03:00:00 2.8 6 Nordeste 14 Nordeste 0 -- -- 81
2019-03-28 02:00:00 3.3 11 Nordeste 17 Este 0 -- -- 83
2019-03-28 01:00:00 5.4 12 Nordeste 17 Nordeste 0 -- -- 70
2019-03-28 00:00:00 5.7 9 Nordeste 16 Nordeste 0 -- -- 63
2019-03-27 23:00:00 7.5 13 Nordeste 18 Este 0 -- -- 56
2019-03-27 22:00:00 8.1 9 Nordeste 18 Este 0 -- -- 56
2019-03-27 21:00:00 9.1 6 Sur 17 Este 0 -- -- 51
2019-03-27 20:00:00 7.4 5 Nordeste 7 Nordeste 0 -- -- 54
2019-03-27 19:00:00 13.9 4 Oeste 20 Sudoeste 0 -- -- 38
2019-03-27 18:00:00 16.1 11 Sudoeste 22 Sudoeste 0 -- -- 31
2019-03-27 17:00:00 16.9 13 Sudoeste 26 Sudoeste 0 -- -- 34
2019-03-27 16:00:00 17.3 15 Sudoeste 27 Sudoeste 0 -- -- 34
2019-03-27 15:00:00 16.6 18 Sudoeste 28 Oeste 0 -- -- 34
2019-03-27 14:00:00 15.8 17 Sudoeste 33 Sudoeste 0 -- -- 42
2019-03-27 13:00:00 14.4 21 Sudoeste 32 Sur 0 -- -- 50
2019-03-27 12:00:00 13.5 15 Sur 23 Sur 0 -- -- 56
2019-03-27 11:00:00 12.7 10 Sudoeste 16 Sudoeste 0 -- -- 58
2019-03-27 10:00:00 11.2 10 Sudoeste 14 Sudoeste 0 -- -- 61
2019-03-27 09:00:00 9.6 3 Sur 10 Este 0 -- -- 70
2019-03-27 08:00:00 3.3 5 Nordeste 15 Nordeste 0 -- -- 87
2019-03-27 07:00:00 0.6 10 Nordeste 13 Este 0 -- -- 94
2019-03-27 06:00:00 0.4 5 Nordeste 12 Este 0 -- -- 91
2019-03-27 05:00:00 1.3 7 Nordeste 12 Este 0 -- -- 88
2019-03-27 04:00:00 0.9 8 Nordeste 13 Este 0 -- -- 90
2019-03-27 03:00:00 1.3 7 Nordeste 13 Este 0 -- -- 87
2019-03-27 02:00:00 1.8 8 Nordeste 12 Este 0 -- -- 85
2019-03-27 01:00:00 1.7 10 Nordeste 13 Nordeste 0 -- -- 85
2019-03-27 00:00:00 4.4 9 Nordeste 13 Nordeste 0 -- -- 75
2019-03-26 23:00:00 6.1 8 Nordeste 18 Sudeste 0 -- -- 70
2019-03-26 22:00:00 6.5 9 Este 18 Este 0 -- -- 70
2019-03-26 21:00:00 8.7 13 Sudeste 24 Sur 0 -- -- 63
2019-03-26 20:00:00 11.6 11 Sudeste 23 Norte 0 -- -- 44
2019-03-26 19:00:00 14.9 6 Nordeste 30 Nordeste 0 -- -- 32
2019-03-26 18:00:00 18.1 14 Nordeste 34 Oeste 0 -- -- 12
2019-03-26 17:00:00 18.6 14 Oeste 33 Sudoeste 0 -- -- 30
2019-03-26 16:00:00 18.5 18 Sudoeste 31 Sudoeste 0 -- -- 31
2019-03-26 15:00:00 17.8 15 Sudoeste 36 Sudoeste 0 -- -- 36
2019-03-26 14:00:00 17 19 Sudoeste 31 Oeste 0 -- -- 35
2019-03-26 13:00:00 15.3 22 Sudoeste 39 Sudoeste 0 -- -- 40
2019-03-26 12:00:00 14.2 23 Sudoeste 30 Sudoeste 0 -- -- 47
2019-03-26 11:00:00 12.6 17 Sudoeste 22 Sudoeste 0 -- -- 55
2019-03-26 10:00:00 10.6 10 Sur 20 Sudoeste 0 -- -- 62
2019-03-26 09:00:00 7.4 6 Sudoeste 10 Sudoeste 0 -- -- 75
2019-03-26 08:00:00 1.9 7 Este 14 Este 0 -- -- 93
2019-03-26 07:00:00 -0.4 7 Nordeste 13 Norte 0 -- -- 95
2019-03-26 06:00:00 0.5 6 Nordeste 13 Este 0 -- -- 90
2019-03-26 05:00:00 1.1 6 Nordeste 13 Este 0 -- -- 93
2019-03-26 04:00:00 0.9 6 Nordeste 9 Nordeste 0 -- -- 87
2019-03-26 03:00:00 2.2 5 Nordeste 9 Norte 0 -- -- 82
2019-03-26 02:00:00 4.2 2 Este 8 Norte 0 -- -- 76
2019-03-26 01:00:00 5.8 3 Noroeste 14 Este 0 -- -- 67
2019-03-26 00:00:00 8.3 8 Este 18 Sudeste 0 -- -- 60
2019-03-25 23:00:00 8.7 4 Nordeste 15 Este 0 -- -- 47
2019-03-25 22:00:00 8.9 9 Nordeste 13 Este 0 -- -- 49
2019-03-25 21:00:00 10.5 8 Nordeste 14 Este 0 -- -- 54
2019-03-25 20:00:00 13.3 4 Sudoeste 14 Oeste 0 -- -- 47
2019-03-25 19:00:00 15.8 7 Sudoeste 23 Sudoeste 0 -- -- 44
2019-03-25 18:00:00 18.2 15 Sudoeste 31 Oeste 0 -- -- 39
2019-03-25 17:00:00 19.3 16 Sudoeste 35 Sudoeste 0 -- -- 38
2019-03-25 16:00:00 19.9 16 Sudoeste 35 Sudoeste 0 -- -- 39
2019-03-25 15:00:00 18.8 21 Sudoeste 36 Sudoeste 0 -- -- 44
2019-03-25 14:00:00 17.4 21 Sudoeste 35 Sudoeste 0 -- -- 49
2019-03-25 13:00:00 16.7 20 Sudoeste 29 Sudoeste 0 -- -- 48
2019-03-25 12:00:00 15 15 Sudoeste 25 Sudoeste 0 -- -- 52
2019-03-25 11:00:00 13.7 12 Sudoeste 20 Sur 0 -- -- 57
2019-03-25 10:00:00 13 13 Sudoeste 19 Sudoeste 0 -- -- 57
2019-03-25 09:00:00 11.8 3 Sur 10 Nordeste 0 -- -- 61
2019-03-25 08:00:00 6.2 6 Nordeste 9 Nordeste 0 -- -- 76
2019-03-25 07:00:00 3.8 5 Nordeste 9 Nordeste 0 -- -- 78
2019-03-25 06:00:00 5.5 5 Nordeste 8 Este 0 -- -- 74
2019-03-25 05:00:00 5.5 5 Nordeste 14 Este 0 -- -- 73
2019-03-25 04:00:00 6.4 7 Nordeste 13 Nordeste 0 -- -- 70
2019-03-25 03:00:00 7 10 Nordeste 14 Este 0 -- -- 70
2019-03-25 02:00:00 7.4 8 Nordeste 12 Nordeste 0 -- -- 68
2019-03-25 01:00:00 9.3 10 Nordeste 13 Nordeste 0 -- -- 61
2019-03-25 00:00:00 10.4 10 Nordeste 14 Norte 0 -- -- 58